Time;durP1;ratioP1;P1;durP2;ratioP2;P2;SDS_P1;SDS_P2;PMS_P1;PMS_P2;Temp;Humidity;BMP_temperature;BMP_pressure;BME280_temperature;BME280_humidity;BME280_pressure;Samples;Min_cycle;Max_cycle;Signal;HPM_P1;HPM_P2
2023/11/22 00:02:28;;;;;;;2.10;1.80;;;21.50;91.60;;;;;;5025991;28;20466;-69
2023/11/22 00:04:55;;;;;;;3.13;1.70;;;21.50;91.60;;;;;;5023898;28;20565;-68
2023/11/22 00:07:22;;;;;;;1.80;1.50;;;21.50;91.60;;;;;;5024319;28;21555;-68
2023/11/22 00:09:49;;;;;;;1.40;1.30;;;21.50;91.60;;;;;;5026606;28;20468;-69
2023/11/22 00:12:17;;;;;;;1.47;1.37;;;21.40;91.60;;;;;;5026771;28;20544;-69
2023/11/22 00:14:45;;;;;;;1.60;1.50;;;21.50;92.00;;;;;;5021844;28;20462;-69
2023/11/22 00:17:12;;;;;;;1.60;1.50;;;21.50;91.60;;;;;;5025610;28;20528;-69
2023/11/22 00:19:40;;;;;;;1.57;1.47;;;21.40;91.50;;;;;;5024796;28;20485;-69
2023/11/22 00:22:13;;;;;;;1.40;1.30;;;21.40;91.50;;;;;;5024256;28;20462;-68
2023/11/22 00:24:39;;;;;;;1.53;1.40;;;21.40;91.60;;;;;;5027408;28;20469;-67
2023/11/22 00:27:06;;;;;;;1.77;1.53;;;21.40;91.60;;;;;;5027820;28;20546;-69
2023/11/22 00:29:33;;;;;;;1.43;1.33;;;21.40;91.60;;;;;;5018309;28;20472;-69
2023/11/22 00:32:01;;;;;;;1.60;1.20;;;21.40;91.60;;;;;;5022650;28;20485;-68
2023/11/22 00:34:28;;;;;;;1.10;1.00;;;21.40;91.60;;;;;;5025992;28;20470;-68
2023/11/22 00:36:54;;;;;;;1.50;1.30;;;21.40;91.60;;;;;;5027143;28;20469;-68
2023/11/22 00:39:22;;;;;;;1.33;1.17;;;21.40;91.60;;;;;;5030192;28;20484;-67
2023/11/22 00:41:49;;;;;;;1.40;1.20;;;21.40;91.60;;;;;;5030877;28;20458;-68
2023/11/22 00:44:15;;;;;;;2.10;1.90;;;21.40;91.60;;;;;;5031956;28;20465;-67
2023/11/22 00:46:45;;;;;;;1.60;1.50;;;21.40;92.00;;;;;;5022569;28;20457;-66
2023/11/22 00:49:13;;;;;;;1.23;1.13;;;21.40;91.60;;;;;;5034051;28;20453;-69
2023/11/22 00:51:40;;;;;;;1.60;1.47;;;21.30;91.60;;;;;;5020659;28;20470;-67
2023/11/22 00:54:07;;;;;;;1.60;1.37;;;21.30;91.60;;;;;;5028858;28;20556;-68
2023/11/22 00:56:34;;;;;;;1.70;1.60;;;21.30;91.60;;;;;;5030796;28;20493;-67
2023/11/22 00:59:03;;;;;;;1.37;1.27;;;21.40;91.70;;;;;;5025747;28;20479;-68
2023/11/22 01:01:31;;;;;;;1.50;1.40;;;21.30;91.70;;;;;;5026271;28;20453;-67
2023/11/22 01:03:58;;;;;;;1.20;1.10;;;21.30;91.60;;;;;;5027397;28;21018;-70
2023/11/22 01:06:26;;;;;;;1.37;1.23;;;21.30;91.60;;;;;;5027550;28;21545;-69
2023/11/22 01:08:53;;;;;;;2.03;1.50;;;21.30;91.60;;;;;;5027415;28;20992;-69
2023/11/22 01:11:20;;;;;;;1.70;1.60;;;21.30;91.70;;;;;;5030184;28;20491;-68
2023/11/22 01:13:47;;;;;;;1.50;1.40;;;21.30;91.60;;;;;;5030253;28;20465;-68
2023/11/22 01:16:14;;;;;;;1.40;1.20;;;21.30;91.60;;;;;;5029503;28;20458;-67
2023/11/22 01:18:41;;;;;;;1.70;1.30;;;21.30;91.70;;;;;;5025908;28;20483;-68
2023/11/22 01:21:08;;;;;;;1.40;1.30;;;21.30;91.70;;;;;;5028657;28;20468;-67
2023/11/22 01:23:36;;;;;;;1.20;1.10;;;21.30;91.70;;;;;;5030688;28;20492;-69
2023/11/22 01:26:03;;;;;;;1.53;1.43;;;21.30;91.70;;;;;;5029734;28;20835;-67
2023/11/22 01:28:34;;;;;;;1.60;1.50;;;21.30;91.70;;;;;;5029231;28;20480;-69
2023/11/22 01:31:00;;;;;;;1.63;1.53;;;21.30;91.60;;;;;;5024148;28;20515;-69
2023/11/22 01:33:27;;;;;;;1.80;1.70;;;21.30;91.70;;;;;;5026977;28;20995;-68
2023/11/22 01:35:54;;;;;;;1.50;1.40;;;21.20;91.70;;;;;;5027379;28;20667;-67
2023/11/22 01:38:21;;;;;;;1.40;1.30;;;21.20;91.70;;;;;;5026925;28;20492;-69
2023/11/22 01:40:50;;;;;;;1.60;1.50;;;21.20;91.70;;;;;;5025156;28;20462;-68
2023/11/22 01:43:19;;;;;;;2.20;1.43;;;21.20;91.60;;;;;;5026839;28;20462;-68
2023/11/22 01:45:46;;;;;;;1.10;1.00;;;21.20;91.70;;;;;;5028909;28;20457;-67
2023/11/22 01:48:13;;;;;;;1.40;1.30;;;21.20;91.70;;;;;;5025913;28;20465;-70
2023/11/22 01:50:41;;;;;;;1.90;1.70;;;21.20;91.70;;;;;;5027861;28;20928;-68
2023/11/22 01:53:08;;;;;;;2.20;1.70;;;21.20;91.60;;;;;;5019631;28;20468;-67
2023/11/22 01:55:35;;;;;;;1.57;1.43;;;21.20;91.70;;;;;;5029860;28;20464;-69
2023/11/22 01:58:04;;;;;;;1.50;1.40;;;21.20;91.70;;;;;;5029000;28;20831;-69
2023/11/22 02:00:36;;;;;;;1.40;1.30;;;21.20;91.70;;;;;;5027344;28;20470;-69
2023/11/22 02:03:03;;;;;;;1.70;1.20;;;21.20;91.70;;;;;;5023966;28;20480;-68
2023/11/22 02:05:30;;;;;;;1.30;1.20;;;21.20;91.70;;;;;;5026783;28;20469;-68
2023/11/22 02:07:58;;;;;;;1.50;1.40;;;21.20;91.70;;;;;;5030257;28;20462;-68
2023/11/22 02:10:25;;;;;;;1.40;1.30;;;21.20;91.70;;;;;;5030372;28;20201;-68
2023/11/22 02:12:51;;;;;;;1.70;1.20;;;21.20;91.70;;;;;;5031426;28;20458;-67
2023/11/22 02:15:19;;;;;;;1.40;1.13;;;21.20;91.70;;;;;;5028408;28;20470;-69
2023/11/22 02:17:46;;;;;;;1.67;1.43;;;21.20;91.70;;;;;;5028754;28;20468;-68
2023/11/22 02:20:13;;;;;;;1.73;1.50;;;21.20;91.70;;;;;;5027166;28;20486;-68
2023/11/22 02:22:44;;;;;;;1.87;1.10;;;21.20;91.70;;;;;;5033119;28;20831;-68
2023/11/22 02:25:12;;;;;;;1.50;1.40;;;21.20;91.70;;;;;;5032148;28;20866;-69
2023/11/22 02:27:40;;;;;;;1.40;1.30;;;21.20;91.70;;;;;;5019649;28;20516;-67
2023/11/22 02:30:08;;;;;;;1.50;1.33;;;21.10;91.70;;;;;;5026557;28;20466;-67
2023/11/22 02:32:35;;;;;;;1.50;1.30;;;21.10;91.70;;;;;;5035622;28;21165;-69
2023/11/22 02:35:04;;;;;;;1.43;1.33;;;21.10;91.70;;;;;;5030320;28;20466;-69
2023/11/22 02:37:31;;;;;;;1.30;1.20;;;21.10;91.70;;;;;;5030459;28;20826;-69
2023/11/22 02:40:05;;;;;;;1.80;1.50;;;21.10;91.70;;;;;;5027089;28;20482;-69
2023/11/22 02:42:34;;;;;;;1.47;1.37;;;21.10;91.70;;;;;;5034252;28;20828;-69
2023/11/22 02:45:00;;;;;;;1.40;1.23;;;21.10;91.70;;;;;;5032365;28;20493;-69
2023/11/22 02:47:28;;;;;;;1.95;1.40;;;21.10;91.70;;;;;;5032415;28;20461;-67
2023/11/22 02:49:55;;;;;;;1.70;1.57;;;21.10;91.80;;;;;;5035164;28;20207;-68
2023/11/22 02:52:22;;;;;;;2.00;1.57;;;21.10;91.70;;;;;;5031351;28;20497;-69
2023/11/22 02:54:48;;;;;;;1.50;1.20;;;21.10;91.70;;;;;;5033678;28;20470;-69
2023/11/22 02:57:15;;;;;;;1.43;1.20;;;21.10;91.70;;;;;;5030432;28;20816;-69
2023/11/22 02:59:44;;;;;;;1.13;1.02;;;21.10;91.70;;;;;;5035648;28;20476;-69
2023/11/22 03:02:11;;;;;;;1.65;1.55;;;21.10;91.70;;;;;;5032249;28;20202;-67
2023/11/22 03:04:38;;;;;;;1.60;1.50;;;21.10;91.70;;;;;;5034131;28;20346;-70
2023/11/22 03:07:06;;;;;;;1.70;1.37;;;21.00;91.70;;;;;;5022672;28;20745;-69
2023/11/22 03:09:32;;;;;;;1.10;1.00;;;21.10;91.70;;;;;;5029374;28;23952;-67
2023/11/22 03:11:59;;;;;;;1.60;1.37;;;21.10;91.70;;;;;;5031334;28;20461;-67
2023/11/22 03:14:26;;;;;;;1.40;1.07;;;21.10;91.70;;;;;;5032255;28;20974;-67
2023/11/22 03:16:54;;;;;;;1.87;1.30;;;21.10;92.10;;;;;;5030168;28;21244;-68
2023/11/22 03:19:21;;;;;;;1.40;1.10;;;21.00;91.70;;;;;;5027835;28;21249;-69
2023/11/22 03:21:48;;;;;;;1.43;1.30;;;21.00;91.70;;;;;;5029253;28;20465;-66
2023/11/22 03:24:15;;;;;;;1.20;1.03;;;21.00;91.70;;;;;;5030543;28;20467;-68
2023/11/22 03:26:42;;;;;;;1.73;1.47;;;21.00;91.70;;;;;;5026075;28;20527;-67
2023/11/22 03:29:09;;;;;;;1.40;1.30;;;21.00;91.70;;;;;;5022923;28;20461;-68
2023/11/22 03:31:35;;;;;;;1.40;1.23;;;21.00;91.70;;;;;;5023583;28;20743;-69
2023/11/22 03:34:05;;;;;;;1.20;1.10;;;21.00;91.70;;;;;;5025935;28;20485;-69
2023/11/22 03:36:32;;;;;;;1.88;1.40;;;21.00;91.70;;;;;;5025545;28;20207;-70
2023/11/22 03:38:59;;;;;;;1.30;1.13;;;21.00;91.70;;;;;;5025897;28;20215;-68
2023/11/22 03:41:25;;;;;;;1.95;1.80;;;21.00;91.70;;;;;;5026642;28;20206;-67
2023/11/22 03:43:52;;;;;;;1.38;1.00;;;21.00;92.10;;;;;;5024182;28;20219;-67
2023/11/22 03:46:19;;;;;;;1.20;1.10;;;21.00;91.70;;;;;;5022368;28;20199;-69
2023/11/22 03:48:46;;;;;;;1.50;1.20;;;21.00;91.70;;;;;;5021425;28;20214;-68
2023/11/22 03:51:15;;;;;;;1.50;1.40;;;21.00;91.70;;;;;;5022726;28;20468;-69
2023/11/22 03:53:42;;;;;;;1.47;1.13;;;21.00;91.70;;;;;;5027805;28;20973;-69
2023/11/22 03:56:09;;;;;;;1.37;1.27;;;21.00;91.70;;;;;;5025577;28;20703;-69
2023/11/22 03:58:36;;;;;;;1.10;0.90;;;21.00;91.70;;;;;;5027114;28;20468;-68
2023/11/22 04:01:03;;;;;;;1.47;1.30;;;21.00;91.70;;;;;;5022720;28;21702;-67
2023/11/22 04:03:30;;;;;;;1.00;0.90;;;21.00;91.70;;;;;;5026161;28;20883;-68
2023/11/22 04:05:57;;;;;;;1.40;1.30;;;21.00;91.70;;;;;;5024644;28;20208;-67
2023/11/22 04:08:25;;;;;;;1.20;1.10;;;21.00;91.70;;;;;;5022975;28;20981;-69
2023/11/22 04:10:52;;;;;;;1.60;1.50;;;21.00;91.70;;;;;;5028022;28;21018;-69
2023/11/22 04:13:19;;;;;;;1.47;1.30;;;21.00;91.70;;;;;;5024241;28;20453;-68
2023/11/22 04:15:45;;;;;;;1.47;1.23;;;21.00;91.70;;;;;;5029040;28;20473;-67
2023/11/22 04:18:13;;;;;;;1.40;1.20;;;21.00;91.70;;;;;;5026710;28;20462;-68
2023/11/22 04:20:39;;;;;;;1.30;1.20;;;21.00;91.70;;;;;;5025972;28;20478;-69
2023/11/22 04:23:06;;;;;;;1.10;1.00;;;20.90;91.70;;;;;;5024818;28;20474;-69
2023/11/22 04:25:35;;;;;;;1.50;1.40;;;21.00;91.70;;;;;;5027965;28;20484;-67
2023/11/22 04:28:02;;;;;;;1.20;1.00;;;21.00;91.70;;;;;;5027667;28;20457;-68
2023/11/22 04:30:28;;;;;;;1.30;1.10;;;21.00;91.70;;;;;;5026766;28;20464;-67
2023/11/22 04:32:54;;;;;;;1.23;1.10;;;21.00;91.70;;;;;;5021873;28;20966;-67
2023/11/22 04:35:21;;;;;;;1.57;1.47;;;21.00;91.70;;;;;;5029086;28;20203;-68
2023/11/22 04:37:48;;;;;;;1.10;1.00;;;21.00;91.70;;;;;;5025526;28;20193;-66
2023/11/22 04:40:15;;;;;;;1.10;1.00;;;20.90;91.60;;;;;;5030807;28;20475;-68
2023/11/22 04:42:43;;;;;;;1.20;1.10;;;20.90;91.60;;;;;;5025974;28;20454;-68
2023/11/22 04:45:10;;;;;;;1.23;1.13;;;21.00;91.70;;;;;;5026461;28;20458;-69
2023/11/22 04:47:37;;;;;;;1.50;1.30;;;21.00;91.70;;;;;;5024240;28;20204;-68
2023/11/22 04:50:04;;;;;;;1.37;1.07;;;20.90;91.70;;;;;;5023059;28;20196;-69
2023/11/22 04:52:31;;;;;;;1.53;1.43;;;21.00;91.70;;;;;;5025927;28;20475;-68
2023/11/22 04:54:58;;;;;;;2.05;1.20;;;20.90;91.70;;;;;;5027033;28;20468;-68
2023/11/22 04:57:25;;;;;;;1.70;1.27;;;20.90;91.60;;;;;;5024112;28;20192;-68
2023/11/22 04:59:53;;;;;;;1.30;1.10;;;20.90;91.50;;;;;;5028216;28;20485;-70
2023/11/22 05:02:20;;;;;;;1.13;1.00;;;20.90;91.60;;;;;;5022572;28;20958;-66
2023/11/22 05:04:48;;;;;;;1.20;1.10;;;20.90;91.60;;;;;;5028267;28;20467;-69
2023/11/22 05:07:15;;;;;;;1.77;1.40;;;20.90;91.60;;;;;;5021654;28;20462;-68
2023/11/22 05:09:43;;;;;;;1.40;1.00;;;20.90;91.60;;;;;;5025357;28;20478;-70
2023/11/22 05:12:10;;;;;;;1.60;1.50;;;20.90;91.60;;;;;;5025876;28;20475;-69
2023/11/22 05:14:37;;;;;;;1.20;1.10;;;20.90;91.60;;;;;;5025279;28;20466;-69
2023/11/22 05:17:05;;;;;;;1.40;1.00;;;20.90;91.60;;;;;;5017386;28;20462;-68
2023/11/22 05:19:32;;;;;;;1.17;1.07;;;20.90;91.60;;;;;;5024524;28;20231;-70
2023/11/22 05:21:59;;;;;;;1.15;1.05;;;20.90;91.60;;;;;;5020191;28;20455;-70
2023/11/22 05:24:25;;;;;;;1.30;1.17;;;20.90;91.70;;;;;;5024717;28;20199;-68
2023/11/22 05:26:52;;;;;;;1.27;0.93;;;20.90;91.70;;;;;;5023399;28;20812;-69
2023/11/22 05:29:19;;;;;;;1.10;1.00;;;20.90;91.60;;;;;;5024328;28;20200;-69
2023/11/22 05:31:46;;;;;;;1.20;1.10;;;20.90;91.60;;;;;;5025207;28;20589;-68
2023/11/22 05:34:14;;;;;;;1.30;1.10;;;20.90;91.60;;;;;;5020517;28;20661;-70
2023/11/22 05:36:41;;;;;;;1.30;1.00;;;20.90;91.60;;;;;;5020775;28;20537;-69
2023/11/22 05:39:08;;;;;;;2.33;1.37;;;20.90;91.60;;;;;;5022238;28;20457;-68
2023/11/22 05:41:35;;;;;;;1.20;1.00;;;20.90;91.70;;;;;;5026413;28;20464;-70
2023/11/22 05:44:03;;;;;;;1.47;1.37;;;20.90;91.70;;;;;;5029449;28;20655;-69
2023/11/22 05:46:30;;;;;;;1.58;1.17;;;20.90;91.60;;;;;;5024427;28;20498;-70
2023/11/22 05:48:57;;;;;;;1.30;1.13;;;20.90;91.60;;;;;;5024324;28;20587;-69
2023/11/22 05:51:25;;;;;;;1.73;1.63;;;20.90;91.60;;;;;;5022886;28;20469;-70
2023/11/22 05:53:51;;;;;;;1.20;1.10;;;20.90;91.60;;;;;;5026007;28;20198;-70
2023/11/22 05:56:18;;;;;;;1.50;1.23;;;20.90;91.60;;;;;;5020971;28;20217;-66
2023/11/22 05:58:45;;;;;;;1.23;1.13;;;20.90;92.00;;;;;;5023703;28;20823;-69
2023/11/22 06:01:12;;;;;;;1.33;1.20;;;20.90;91.60;;;;;;5023366;28;20224;-70
2023/11/22 06:03:39;;;;;;;1.20;1.05;;;20.90;91.60;;;;;;5026112;28;20923;-69
2023/11/22 06:06:07;;;;;;;1.30;1.20;;;20.90;91.70;;;;;;5022300;28;20215;-70
2023/11/22 06:08:35;;;;;;;1.23;1.13;;;20.90;91.60;;;;;;5026274;28;20210;-71
2023/11/22 06:11:03;;;;;;;1.53;1.40;;;20.90;91.60;;;;;;5023914;28;20986;-69
2023/11/22 06:13:30;;;;;;;1.40;1.10;;;20.90;91.70;;;;;;5023971;28;20461;-65
2023/11/22 06:15:57;;;;;;;1.50;1.13;;;20.90;91.70;;;;;;5023696;28;20202;-69
2023/11/22 06:18:28;;;;;;;1.00;0.80;;;20.90;91.60;;;;;;5024622;28;20509;-68
2023/11/22 06:20:55;;;;;;;1.20;1.10;;;20.90;91.60;;;;;;5024842;28;20484;-68
2023/11/22 06:23:22;;;;;;;1.87;1.23;;;20.90;91.60;;;;;;5025988;28;20208;-70
2023/11/22 06:25:50;;;;;;;1.30;1.20;;;20.90;91.60;;;;;;5028085;28;20543;-70
2023/11/22 06:28:17;;;;;;;1.30;1.20;;;20.90;91.60;;;;;;5023140;28;20467;-70
2023/11/22 06:30:44;;;;;;;1.60;1.50;;;20.90;91.60;;;;;;5023951;28;20457;-70
2023/11/22 06:33:11;;;;;;;1.40;1.00;;;20.90;91.70;;;;;;5024929;28;20473;-69
2023/11/22 06:35:38;;;;;;;1.80;1.40;;;20.90;91.70;;;;;;5024465;28;20976;-71
2023/11/22 06:38:04;;;;;;;1.30;1.10;;;20.90;91.60;;;;;;5022473;28;20542;-70
2023/11/22 06:40:31;;;;;;;1.97;1.50;;;20.90;91.70;;;;;;5022785;28;20481;-67
2023/11/22 06:42:59;;;;;;;1.40;1.00;;;20.90;91.60;;;;;;5026102;28;20844;-69
2023/11/22 06:45:26;;;;;;;1.20;1.10;;;20.90;91.60;;;;;;5025960;28;20473;-71
2023/11/22 06:47:53;;;;;;;1.30;1.10;;;20.90;91.60;;;;;;5021856;28;20500;-71
2023/11/22 06:50:20;;;;;;;1.30;1.20;;;20.90;91.60;;;;;;5026601;28;20209;-70
2023/11/22 06:52:49;;;;;;;1.20;1.10;;;20.90;91.60;;;;;;5029155;28;20474;-70
2023/11/22 06:55:17;;;;;;;1.30;1.20;;;20.90;91.60;;;;;;5031544;28;20199;-69
2023/11/22 06:57:44;;;;;;;1.40;1.17;;;20.90;91.60;;;;;;5030845;28;20462;-68
2023/11/22 07:00:13;;;;;;;1.05;0.95;;;20.80;91.50;;;;;;5030041;28;20481;-66
2023/11/22 07:02:40;;;;;;;1.20;1.10;;;20.80;91.50;;;;;;5028036;28;20255;-65
2023/11/22 07:05:08;;;;;;;1.20;0.93;;;20.80;91.50;;;;;;5030627;28;20218;-66
2023/11/22 07:07:35;;;;;;;1.40;1.30;;;20.80;91.50;;;;;;5025418;28;20462;-66
2023/11/22 07:10:05;;;;;;;1.10;0.90;;;20.80;91.50;;;;;;5026776;28;20462;-66
2023/11/22 07:12:32;;;;;;;1.30;1.17;;;20.80;91.50;;;;;;5024605;28;20474;-66
2023/11/22 07:14:59;;;;;;;1.40;1.17;;;20.80;91.50;;;;;;5029074;28;20667;-66
2023/11/22 07:17:28;;;;;;;1.40;1.30;;;20.80;91.50;;;;;;5025079;28;20566;-65
2023/11/22 07:19:55;;;;;;;1.20;1.10;;;20.80;91.50;;;;;;5025783;28;20465;-66
2023/11/22 07:22:23;;;;;;;1.13;1.03;;;20.80;91.50;;;;;;5029024;28;20467;-66
2023/11/22 07:24:51;;;;;;;1.30;1.20;;;20.70;91.40;;;;;;5028614;28;20527;-65
2023/11/22 07:27:19;;;;;;;1.40;0.90;;;20.70;91.50;;;;;;5020907;28;20214;-66
2023/11/22 07:29:46;;;;;;;1.30;1.10;;;20.70;91.50;;;;;;5023414;28;21129;-66
2023/11/22 07:32:13;;;;;;;1.30;1.10;;;20.80;91.60;;;;;;5022986;28;20744;-66
2023/11/22 07:34:42;;;;;;;1.40;1.23;;;20.80;91.60;;;;;;5021265;28;21217;-66
2023/11/22 07:37:09;;;;;;;1.30;1.20;;;20.80;91.60;;;;;;5021923;28;20467;-65
2023/11/22 07:39:38;;;;;;;1.40;1.30;;;20.80;91.60;;;;;;5027129;28;20203;-67
2023/11/22 07:42:07;;;;;;;1.17;1.07;;;20.80;91.70;;;;;;5028177;28;20888;-67
2023/11/22 07:44:35;;;;;;;1.30;1.20;;;20.80;91.70;;;;;;5021418;28;20526;-65
2023/11/22 07:47:02;;;;;;;1.10;0.83;;;20.80;91.70;;;;;;5026681;28;20472;-66
2023/11/22 07:49:30;;;;;;;1.00;0.90;;;20.90;91.70;;;;;;5017737;28;21235;-66
2023/11/22 07:51:58;;;;;;;1.20;0.90;;;20.90;91.80;;;;;;5012069;28;20524;-66
2023/11/22 07:54:25;;;;;;;1.10;1.00;;;20.90;91.70;;;;;;5019601;28;20201;-66
2023/11/22 07:56:52;;;;;;;1.43;1.33;;;20.90;91.70;;;;;;5025707;28;21264;-65
2023/11/22 07:59:19;;;;;;;1.45;1.10;;;20.90;91.70;;;;;;5014552;28;20987;-65
2023/11/22 08:01:47;;;;;;;1.20;1.10;;;20.90;91.70;;;;;;5024466;28;20226;-66
2023/11/22 08:04:14;;;;;;;1.23;1.07;;;21.00;91.70;;;;;;5026952;28;20478;-67
2023/11/22 08:06:41;;;;;;;1.10;1.00;;;21.00;91.80;;;;;;5028424;28;20450;-66
2023/11/22 08:09:10;;;;;;;1.30;1.10;;;21.00;91.70;;;;;;5027254;28;20683;-66
2023/11/22 08:11:37;;;;;;;1.00;0.90;;;21.00;91.70;;;;;;5029159;28;20468;-66
2023/11/22 08:14:03;;;;;;;1.27;1.17;;;21.00;91.70;;;;;;5017090;28;20202;-65
2023/11/22 08:16:30;;;;;;;1.20;1.00;;;21.00;91.70;;;;;;5010315;28;20476;-66
2023/11/22 08:18:57;;;;;;;1.27;1.13;;;21.00;91.70;;;;;;5018707;28;20537;-66
2023/11/22 08:21:24;;;;;;;1.13;1.03;;;21.00;91.70;;;;;;5027824;28;21531;-67
2023/11/22 08:23:53;;;;;;;2.13;1.10;;;21.00;91.60;;;;;;5021513;28;20586;-67
2023/11/22 08:26:21;;;;;;;1.58;1.40;;;21.00;91.60;;;;;;5008060;28;20468;-66
2023/11/22 08:28:48;;;;;;;1.23;1.10;;;21.10;91.70;;;;;;5010049;28;20199;-66
2023/11/22 08:31:16;;;;;;;1.10;0.93;;;21.10;91.70;;;;;;4999883;28;20461;-65
2023/11/22 08:33:43;;;;;;;1.10;1.00;;;21.10;91.70;;;;;;5016819;28;20490;-65
2023/11/22 08:36:10;;;;;;;1.20;1.10;;;21.10;91.70;;;;;;5018176;28;20473;-65
2023/11/22 08:38:40;;;;;;;1.30;1.10;;;21.10;91.60;;;;;;5027343;28;20469;-66
2023/11/22 08:41:08;;;;;;;1.43;1.30;;;21.10;91.60;;;;;;5030239;28;20538;-66
2023/11/22 08:43:36;;;;;;;1.40;1.30;;;21.20;91.70;;;;;;5026532;28;20477;-65
2023/11/22 08:46:04;;;;;;;1.13;1.03;;;21.10;91.60;;;;;;5025616;28;20468;-65
2023/11/22 08:48:31;;;;;;;1.10;0.80;;;21.10;91.60;;;;;;5021757;28;20453;-66
2023/11/22 08:50:58;;;;;;;1.17;0.97;;;21.20;91.70;;;;;;5024138;28;20463;-66
2023/11/22 08:53:25;;;;;;;1.37;1.10;;;21.10;91.60;;;;;;5014927;28;20455;-65
2023/11/22 08:55:53;;;;;;;1.10;1.00;;;21.20;91.70;;;;;;5020392;28;20465;-66
2023/11/22 08:58:19;;;;;;;1.27;1.17;;;21.20;91.60;;;;;;5026841;28;20468;-66
2023/11/22 09:00:48;;;;;;;1.53;1.10;;;21.20;92.00;;;;;;5025810;28;21072;-66
2023/11/22 09:03:17;;;;;;;1.73;1.13;;;21.20;91.60;;;;;;5027291;28;20470;-65
2023/11/22 09:05:43;;;;;;;1.60;1.20;;;21.20;91.60;;;;;;5027619;28;21400;-66
2023/11/22 09:08:13;;;;;;;1.10;0.97;;;21.20;91.60;;;;;;5025985;28;21016;-65
2023/11/22 09:10:40;;;;;;;1.40;1.13;;;21.20;91.60;;;;;;5027705;28;20973;-65
2023/11/22 09:13:07;;;;;;;1.27;1.10;;;21.20;91.50;;;;;;5029990;28;20550;-65
2023/11/22 09:15:35;;;;;;;1.20;0.97;;;21.20;91.50;;;;;;5025743;28;20504;-65
2023/11/22 09:18:03;;;;;;;2.03;1.40;;;21.20;91.50;;;;;;5025699;28;20828;-65
2023/11/22 09:20:31;;;;;;;1.83;1.20;;;21.20;91.50;;;;;;5025031;28;20461;-66
2023/11/22 09:22:58;;;;;;;2.17;1.00;;;21.20;91.50;;;;;;5024407;28;20460;-60
2023/11/22 09:25:27;;;;;;;3.33;1.30;;;21.20;91.60;;;;;;5027885;28;20552;-61
2023/11/22 09:27:58;;;;;;;2.20;1.10;;;21.30;91.60;;;;;;5021695;28;20463;-61
2023/11/22 09:30:35;;;;;;;10.77;1.73;;;21.30;92.00;;;;;;5021127;28;21331;-57
2023/11/22 09:33:04;;;;;;;4.93;1.23;;;21.30;91.90;;;;;;5023778;28;20463;-56
2023/11/22 09:35:32;;;;;;;8.30;1.43;;;21.30;91.90;;;;;;5018147;28;20819;-57
2023/11/22 09:37:59;;;;;;;1.40;1.23;;;21.30;91.80;;;;;;5024149;28;20470;-56
2023/11/22 09:40:28;;;;;;;1.90;1.30;;;21.30;91.80;;;;;;5024451;28;20460;-53
2023/11/22 09:42:55;;;;;;;3.70;1.33;;;21.30;91.80;;;;;;5022003;28;20463;-57
2023/11/22 09:45:22;;;;;;;1.67;1.10;;;21.30;91.80;;;;;;5021746;28;20485;-60
2023/11/22 09:47:49;;;;;;;4.50;1.20;;;21.30;91.80;;;;;;5028519;28;20446;-58
2023/11/22 09:50:21;;;;;;;1.70;1.47;;;21.30;91.80;;;;;;5021974;28;22864;-59
2023/11/22 09:52:51;;;;;;;1.27;1.07;;;21.30;92.10;;;;;;5022365;28;20476;-58
2023/11/22 09:55:20;;;;;;;3.40;1.20;;;21.30;91.70;;;;;;5024835;28;20449;-58
2023/11/22 09:57:47;;;;;;;1.10;1.00;;;21.30;91.70;;;;;;5030855;28;20458;-59
2023/11/22 10:00:18;;;;;;;1.93;1.43;;;21.30;91.70;;;;;;5024393;28;20487;-58
2023/11/22 10:02:45;;;;;;;5.00;1.13;;;21.30;91.60;;;;;;5017211;28;20580;-57
2023/11/22 10:05:12;;;;;;;1.30;1.00;;;21.30;91.60;;;;;;5018984;28;20481;-56
2023/11/22 10:07:40;;;;;;;1.10;0.90;;;21.40;91.60;;;;;;5031194;28;20978;-55
2023/11/22 10:10:10;;;;;;;1.10;0.97;;;21.40;91.60;;;;;;5026046;28;20443;-53
2023/11/22 10:12:40;;;;;;;1.20;0.97;;;21.40;91.50;;;;;;5028429;28;20445;-57
2023/11/22 10:15:14;;;;;;;1.40;1.20;;;21.30;91.40;;;;;;5027035;28;20466;-59
2023/11/22 10:17:41;;;;;;;1.50;1.30;;;21.40;91.40;;;;;;5021886;28;20471;-60
2023/11/22 10:20:11;;;;;;;1.40;1.20;;;21.40;91.40;;;;;;5025629;28;20460;-55
2023/11/22 10:22:48;;;;;;;2.00;1.40;;;21.40;91.30;;;;;;5023890;28;20489;-55
2023/11/22 10:25:18;;;;;;;1.10;1.00;;;21.40;91.40;;;;;;5021667;28;20460;-60
2023/11/22 10:27:46;;;;;;;1.53;1.27;;;21.40;91.40;;;;;;5031992;28;20479;-60
2023/11/22 10:30:14;;;;;;;1.40;1.10;;;21.40;91.30;;;;;;5022991;28;20460;-60
2023/11/22 10:32:42;;;;;;;1.13;1.03;;;21.40;91.40;;;;;;5024913;28;20461;-57
2023/11/22 10:35:09;;;;;;;1.00;0.80;;;21.40;91.30;;;;;;5024495;28;20466;-58
2023/11/22 10:37:36;;;;;;;1.13;1.00;;;21.40;91.30;;;;;;5026525;28;20473;-57
2023/11/22 10:40:06;;;;;;;2.37;1.40;;;21.40;91.30;;;;;;5026807;28;20462;-58
2023/11/22 10:42:35;;;;;;;4.40;1.40;;;21.40;91.20;;;;;;5020505;28;20494;-57
2023/11/22 10:45:03;;;;;;;2.47;1.30;;;21.40;91.20;;;;;;5015956;28;20461;-55
2023/11/22 10:47:31;;;;;;;1.13;1.03;;;21.40;91.30;;;;;;5023676;28;20461;-57
2023/11/22 10:50:01;;;;;;;6.70;1.50;;;21.40;91.20;;;;;;5013713;28;20466;-62
2023/11/22 10:52:28;;;;;;;5.73;1.43;;;21.40;91.10;;;;;;5009242;28;20565;-59
2023/11/22 10:55:03;;;;;;;1.70;1.33;;;21.40;91.10;;;;;;5024548;28;20476;-59
2023/11/22 10:57:32;;;;;;;2.70;1.20;;;21.30;91.00;;;;;;5023128;28;20976;-55
2023/11/22 11:00:05;;;;;;;4.70;1.93;;;21.40;91.00;;;;;;5022357;28;20462;-59
2023/11/22 11:02:38;;;;;;;2.97;2.23;;;21.30;86.80;;;;;;5026423;28;20796;-60
2023/11/22 11:05:16;;;;;;;1.50;1.40;;;21.30;87.80;;;;;;5025457;28;20473;-61
2023/11/22 11:07:46;;;;;;;5.60;1.50;;;21.30;87.60;;;;;;5024145;28;21473;-60
2023/11/22 11:10:14;;;;;;;2.03;1.73;;;21.30;88.20;;;;;;5020497;28;20457;-61
2023/11/22 11:12:43;;;;;;;1.90;1.50;;;21.30;88.60;;;;;;5020444;28;20508;-62
2023/11/22 11:15:10;;;;;;;1.70;1.40;;;21.30;89.00;;;;;;5019923;28;20462;-65
2023/11/22 11:17:39;;;;;;;2.80;1.63;;;21.40;89.20;;;;;;5015834;28;20458;-65
2023/11/22 11:20:08;;;;;;;2.10;1.37;;;21.40;89.50;;;;;;5025112;28;20466;-65
2023/11/22 11:22:35;;;;;;;4.33;2.13;;;21.40;89.70;;;;;;5020306;28;20490;-64
2023/11/22 11:25:04;;;;;;;1.50;1.40;;;21.40;90.00;;;;;;5022452;28;20462;-66
2023/11/22 11:27:35;;;;;;;5.10;1.90;;;21.40;90.10;;;;;;5025246;28;20815;-66
2023/11/22 11:30:24;;;;;;;1.63;1.53;;;21.40;90.20;;;;;;5024080;28;20469;-65
2023/11/22 11:32:52;;;;;;;3.67;2.20;;;21.40;90.30;;;;;;5018345;28;20466;-65
2023/11/22 11:35:19;;;;;;;5.50;1.83;;;21.50;90.30;;;;;;5021944;28;22843;-65
2023/11/22 11:37:51;;;;;;;1.83;1.50;;;21.50;90.40;;;;;;5024459;28;20462;-65
2023/11/22 11:40:27;;;;;;;1.60;1.30;;;21.50;90.50;;;;;;5026426;28;20456;-65
2023/11/22 11:42:56;;;;;;;7.97;1.77;;;21.50;90.40;;;;;;5026667;28;20488;-67
2023/11/22 11:45:24;;;;;;;2.00;1.80;;;21.50;90.50;;;;;;5023097;28;20465;-66
2023/11/22 11:47:52;;;;;;;2.00;1.53;;;21.50;90.50;;;;;;5018200;28;20702;-68
2023/11/22 11:50:18;;;;;;;3.57;1.60;;;21.60;90.60;;;;;;5023172;28;20971;-68
2023/11/22 11:52:45;;;;;;;3.70;1.80;;;21.60;90.60;;;;;;5027006;28;20830;-66
2023/11/22 11:55:12;;;;;;;2.90;1.73;;;21.60;90.70;;;;;;5027390;28;21593;-67
2023/11/22 11:57:39;;;;;;;1.77;1.50;;;21.60;90.70;;;;;;5019422;28;20466;-65
2023/11/22 12:00:09;;;;;;;2.20;1.70;;;21.60;90.70;;;;;;5022986;28;20465;-66
2023/11/22 12:02:37;;;;;;;1.60;1.50;;;21.60;90.80;;;;;;5028212;28;20461;-65
2023/11/22 12:05:08;;;;;;;2.00;1.80;;;21.60;90.80;;;;;;5025199;28;20489;-66
2023/11/22 12:07:35;;;;;;;2.60;2.40;;;21.60;81.20;;;;;;5027288;28;20544;-64
2023/11/22 12:10:02;;;;;;;1.67;1.47;;;21.40;71.90;;;;;;5023719;28;20457;-64
2023/11/22 12:12:28;;;;;;;1.70;1.60;;;21.40;79.20;;;;;;5027718;28;20474;-59
2023/11/22 12:14:56;;;;;;;13.33;2.13;;;21.40;79.50;;;;;;5024655;28;20469;-63
2023/11/22 12:17:24;;;;;;;16.97;3.00;;;21.50;81.30;;;;;;5028964;28;20458;-62
2023/11/22 12:19:52;;;;;;;2.07;1.40;;;21.50;81.60;;;;;;5030972;28;20465;-64
2023/11/22 12:22:19;;;;;;;3.40;1.63;;;21.50;82.10;;;;;;5024692;28;20470;-63
2023/11/22 12:24:46;;;;;;;1.47;1.37;;;21.50;82.70;;;;;;5024942;28;20546;-64
2023/11/22 12:27:14;;;;;;;1.53;1.40;;;21.60;83.10;;;;;;5021852;28;20465;-65
2023/11/22 12:29:41;;;;;;;3.37;2.00;;;21.60;83.60;;;;;;5021525;28;20516;-61
2023/11/22 12:32:08;;;;;;;1.93;1.43;;;21.60;84.20;;;;;;5025248;28;20485;-64
2023/11/22 12:34:35;;;;;;;1.97;1.40;;;21.60;84.40;;;;;;5020182;28;20471;-64
2023/11/22 12:37:04;;;;;;;6.03;2.20;;;21.70;85.10;;;;;;5019244;28;20446;-64
2023/11/22 12:39:32;;;;;;;6.20;1.70;;;21.60;85.30;;;;;;5019358;28;20524;-64
2023/11/22 12:41:59;;;;;;;2.70;1.43;;;21.70;85.60;;;;;;5019893;28;20517;-62
2023/11/22 12:44:25;;;;;;;1.60;1.43;;;21.70;86.20;;;;;;5021813;28;20480;-64
2023/11/22 12:46:56;;;;;;;4.20;2.03;;;21.70;86.60;;;;;;5020295;28;20822;-64
2023/11/22 12:49:24;;;;;;;3.63;1.40;;;21.70;87.00;;;;;;5009075;28;21017;-62